Time;durP1;ratioP1;P1;durP2;ratioP2;P2;SDS_P1;SDS_P2;PMS_P1;PMS_P2;Temp;Humidity;BMP_temperature;BMP_pressure;BME280_temperature;BME280_humidity;BME280_pressure;Samples;Min_cycle;Max_cycle;Signal;HPM_P1;HPM_P2
2022/10/20 00:01:16;;;;;;;77.00;44.45;;;8.50;99.90;;;;;;5093955;28;20024;-63
2022/10/20 00:03:43;;;;;;;101.80;55.25;;;8.50;99.90;;;;;;5093967;28;20048;-63
2022/10/20 00:06:14;;;;;;;115.13;55.83;;;8.40;99.90;;;;;;5094448;28;20480;-63
2022/10/20 00:08:41;;;;;;;85.43;48.88;;;8.40;99.90;;;;;;5093865;28;20111;-63
2022/10/20 00:11:09;;;;;;;72.85;43.72;;;8.40;99.90;;;;;;5093884;28;20545;-62
2022/10/20 00:13:36;;;;;;;73.82;40.58;;;8.50;99.90;;;;;;5093920;28;20492;-63
2022/10/20 00:16:02;;;;;;;79.95;44.35;;;8.60;99.90;;;;;;5093913;28;20030;-63
2022/10/20 00:18:28;;;;;;;93.05;47.83;;;8.50;99.90;;;;;;5094077;28;20024;-62
2022/10/20 00:20:54;;;;;;;81.43;45.42;;;8.50;99.90;;;;;;5093827;28;20481;-63
2022/10/20 00:23:21;;;;;;;75.32;44.55;;;8.40;99.90;;;;;;5093675;28;20020;-62
2022/10/20 00:25:47;;;;;;;69.80;40.15;;;8.30;99.90;;;;;;5093929;28;20099;-63
2022/10/20 00:28:13;;;;;;;69.22;39.47;;;8.30;99.90;;;;;;5094674;28;20591;-63
2022/10/20 00:30:39;;;;;;;63.38;36.85;;;8.30;99.90;;;;;;5097392;28;20020;-62
2022/10/20 00:33:05;;;;;;;84.35;42.72;;;8.30;99.90;;;;;;5097399;28;20104;-63
2022/10/20 00:35:32;;;;;;;89.63;44.45;;;8.30;99.90;;;;;;5097291;28;20024;-62
2022/10/20 00:37:58;;;;;;;80.95;42.38;;;8.30;99.90;;;;;;5097474;28;20020;-63
2022/10/20 00:40:25;;;;;;;86.00;42.90;;;8.30;99.90;;;;;;5097401;28;20032;-63
2022/10/20 00:42:51;;;;;;;83.00;41.75;;;8.40;99.90;;;;;;5097512;28;20031;-63
2022/10/20 00:45:19;;;;;;;79.68;40.78;;;8.40;99.90;;;;;;5096823;28;20417;-63
2022/10/20 00:48:03;;;;;;;74.45;39.35;;;8.40;99.90;;;;;;5097179;28;20054;-63
2022/10/20 00:50:46;;;;;;;62.95;33.58;;;8.50;99.90;;;;;;5097182;28;20024;-62
2022/10/20 00:53:12;;;;;;;69.60;35.75;;;8.40;99.90;;;;;;5097233;28;20031;-63
2022/10/20 00:55:41;;;;;;;65.70;33.90;;;8.30;99.90;;;;;;5096981;28;20389;-62
2022/10/20 00:58:08;;;;;;;75.43;36.33;;;8.40;99.90;;;;;;5096775;28;20036;-64
2022/10/20 01:00:35;;;;;;;67.13;36.53;;;8.30;99.90;;;;;;5096882;28;20103;-63
2022/10/20 01:03:02;;;;;;;62.10;33.88;;;8.30;99.90;;;;;;5096792;28;20046;-62
2022/10/20 01:05:28;;;;;;;66.85;34.65;;;8.40;99.90;;;;;;5096849;28;20062;-62
2022/10/20 01:07:54;;;;;;;66.25;37.47;;;8.60;99.90;;;;;;5096817;28;20059;-62
2022/10/20 01:10:22;;;;;;;77.68;37.58;;;8.50;99.90;;;;;;5096598;28;20481;-63
2022/10/20 01:13:05;;;;;;;65.63;35.13;;;8.50;99.90;;;;;;5096590;28;20036;-62
2022/10/20 01:16:00;;;;;;;63.60;35.40;;;8.40;99.90;;;;;;5096750;28;20549;-63
2022/10/20 01:19:05;;;;;;;63.08;34.75;;;8.30;99.90;;;;;;5096531;28;20561;-63
2022/10/20 01:22:18;;;;;;;72.15;38.45;;;8.30;99.90;;;;;;5076306;28;20104;-63
2022/10/20 01:25:01;;;;;;;62.05;32.72;;;8.20;99.90;;;;;;5004176;28;20104;-63
2022/10/20 01:27:41;;;;;;;65.68;33.55;;;8.20;99.90;;;;;;5076237;28;20071;-62
2022/10/20 01:30:17;;;;;;;66.35;36.28;;;8.20;99.90;;;;;;5076172;28;20037;-63
2022/10/20 01:32:54;;;;;;;65.32;35.92;;;8.30;99.90;;;;;;5092674;28;20028;-63
2022/10/20 01:35:37;;;;;;;59.58;32.28;;;8.30;99.90;;;;;;5096074;28;20461;-63
2022/10/20 01:38:12;;;;;;;60.50;33.70;;;8.30;99.90;;;;;;5096194;28;20089;-63
2022/10/20 01:40:49;;;;;;;67.78;33.42;;;8.40;99.90;;;;;;5095644;28;20051;-63
2022/10/20 01:43:18;;;;;;;63.97;33.97;;;8.50;99.90;;;;;;5096046;28;20027;-63
2022/10/20 01:45:47;;;;;;;62.75;31.73;;;8.40;99.90;;;;;;5095742;28;20481;-62
2022/10/20 01:48:15;;;;;;;65.28;32.38;;;8.40;99.90;;;;;;5095941;28;20024;-64
2022/10/20 01:50:42;;;;;;;57.47;30.63;;;8.40;99.90;;;;;;5096120;28;20028;-62
2022/10/20 01:53:08;;;;;;;57.08;31.65;;;8.40;99.90;;;;;;5095855;28;20028;-63
2022/10/20 01:55:35;;;;;;;59.05;30.50;;;8.40;99.90;;;;;;5095850;28;20016;-63
2022/10/20 01:58:39;;;;;;;60.72;31.80;;;8.50;99.90;;;;;;5095780;28;20028;-62
2022/10/20 02:01:30;;;;;;;53.13;29.75;;;8.50;99.90;;;;;;5095756;28;20026;-63
2022/10/20 02:03:59;;;;;;;51.78;27.88;;;8.40;99.90;;;;;;5095712;28;20052;-62
2022/10/20 02:06:34;;;;;;;49.97;27.08;;;8.50;99.90;;;;;;5095639;28;20024;-63
2022/10/20 02:09:17;;;;;;;49.88;25.90;;;8.50;99.90;;;;;;5095652;28;20024;-63
2022/10/20 02:11:51;;;;;;;50.15;25.27;;;8.40;99.90;;;;;;5095518;28;20034;-63
2022/10/20 02:14:19;;;;;;;43.88;24.65;;;8.40;99.90;;;;;;5095683;28;20028;-63
2022/10/20 02:16:48;;;;;;;46.63;25.70;;;8.40;99.90;;;;;;5095470;28;20073;-63
2022/10/20 02:19:18;;;;;;;46.63;24.83;;;8.40;99.90;;;;;;5095459;28;20091;-63
2022/10/20 02:21:45;;;;;;;40.78;22.02;;;8.40;99.90;;;;;;5095309;28;20531;-63
2022/10/20 02:24:14;;;;;;;39.67;22.98;;;8.40;99.90;;;;;;5095205;28;20028;-62
2022/10/20 02:26:42;;;;;;;42.10;23.27;;;8.40;99.90;;;;;;5095482;28;20028;-62
2022/10/20 02:29:19;;;;;;;40.45;24.33;;;8.50;99.90;;;;;;5095378;28;20488;-62
2022/10/20 02:31:46;;;;;;;52.30;26.88;;;8.40;99.90;;;;;;5095131;28;20020;-62
2022/10/20 02:34:12;;;;;;;62.83;32.15;;;8.50;99.90;;;;;;5095015;28;20539;-62
2022/10/20 02:36:40;;;;;;;60.53;28.73;;;8.40;99.90;;;;;;5095168;28;20028;-62
2022/10/20 02:39:07;;;;;;;63.25;30.10;;;8.40;99.90;;;;;;5095088;28;20051;-63
2022/10/20 02:41:33;;;;;;;66.28;31.52;;;8.40;99.90;;;;;;5095391;28;20035;-62
2022/10/20 02:43:59;;;;;;;74.75;35.35;;;8.40;99.90;;;;;;5094860;28;20024;-62
2022/10/20 02:46:25;;;;;;;67.43;32.75;;;8.40;99.90;;;;;;5094863;28;20055;-62
2022/10/20 02:48:50;;;;;;;91.07;36.22;;;8.50;99.90;;;;;;5094958;28;20035;-63
2022/10/20 02:51:16;;;;;;;103.22;38.55;;;8.50;99.90;;;;;;5094152;28;20032;-63
2022/10/20 02:53:44;;;;;;;100.15;38.15;;;8.50;99.90;;;;;;5094936;28;20127;-62
2022/10/20 02:56:10;;;;;;;90.80;37.45;;;8.50;99.90;;;;;;5094845;28;20036;-62
2022/10/20 02:58:36;;;;;;;90.97;35.25;;;8.40;99.90;;;;;;5094518;28;20063;-62
2022/10/20 03:01:03;;;;;;;99.93;39.17;;;8.40;99.90;;;;;;5095226;28;20426;-62
2022/10/20 03:03:29;;;;;;;95.38;36.65;;;8.40;99.90;;;;;;5094535;28;20086;-62
2022/10/20 03:05:54;;;;;;;81.03;36.40;;;8.30;99.90;;;;;;5094567;28;20028;-62
2022/10/20 03:08:21;;;;;;;85.82;35.13;;;8.40;99.90;;;;;;5094735;28;20085;-63
2022/10/20 03:10:47;;;;;;;92.80;37.50;;;8.30;99.90;;;;;;5094714;28;20028;-62
2022/10/20 03:13:14;;;;;;;91.15;37.75;;;8.30;99.90;;;;;;5094536;28;20035;-62
2022/10/20 03:15:40;;;;;;;99.53;38.60;;;8.30;99.90;;;;;;5094749;28;20035;-62
2022/10/20 03:18:06;;;;;;;82.97;36.30;;;8.20;99.90;;;;;;5094629;28;20129;-62
2022/10/20 03:20:33;;;;;;;86.20;38.58;;;8.20;99.90;;;;;;5094486;28;20020;-62
2022/10/20 03:22:59;;;;;;;75.13;33.88;;;8.10;99.90;;;;;;5094616;28;20042;-62
2022/10/20 03:25:25;;;;;;;75.57;34.10;;;8.10;99.90;;;;;;5094549;28;20028;-62
2022/10/20 03:27:51;;;;;;;79.65;34.83;;;8.10;99.90;;;;;;5094329;28;20431;-62
2022/10/20 03:30:18;;;;;;;82.45;34.45;;;8.00;99.90;;;;;;5094668;28;20103;-62
2022/10/20 03:32:43;;;;;;;75.53;34.70;;;8.00;99.90;;;;;;5094312;28;20028;-62
2022/10/20 03:35:09;;;;;;;79.38;35.17;;;8.00;99.90;;;;;;5094620;28;20031;-62
2022/10/20 03:37:35;;;;;;;102.22;40.22;;;8.00;99.90;;;;;;5094665;28;20028;-62
2022/10/20 03:40:01;;;;;;;76.57;35.22;;;8.00;99.90;;;;;;5094430;28;20032;-62
2022/10/20 03:42:27;;;;;;;70.57;33.55;;;8.00;99.90;;;;;;5094163;28;20393;-62
2022/10/20 03:44:53;;;;;;;105.53;37.33;;;8.10;99.90;;;;;;5094182;28;20082;-62
2022/10/20 03:47:19;;;;;;;148.77;35.47;;;8.30;99.90;;;;;;5094199;28;20020;-62
2022/10/20 03:49:45;;;;;;;155.13;36.55;;;8.40;99.90;;;;;;5094134;28;20032;-63
2022/10/20 03:52:10;;;;;;;123.57;31.10;;;8.30;99.90;;;;;;5094200;28;20039;-62
2022/10/20 03:54:36;;;;;;;132.75;35.25;;;8.20;99.90;;;;;;5094221;28;20036;-62
2022/10/20 03:57:02;;;;;;;106.07;35.85;;;8.20;99.90;;;;;;5094117;28;20405;-62
2022/10/20 03:59:28;;;;;;;128.07;38.60;;;8.20;99.90;;;;;;5094214;28;20024;-62
2022/10/20 04:01:54;;;;;;;139.52;37.67;;;8.20;99.90;;;;;;5094626;28;20027;-62
2022/10/20 04:04:20;;;;;;;154.60;42.10;;;8.20;99.90;;;;;;5097848;28;20094;-62
2022/10/20 04:06:46;;;;;;;125.72;43.40;;;8.30;99.90;;;;;;5098337;28;20027;-62
2022/10/20 04:09:12;;;;;;;131.80;46.10;;;8.20;99.90;;;;;;5097955;28;20032;-62
2022/10/20 04:11:38;;;;;;;115.55;42.08;;;8.20;99.90;;;;;;5097813;28;20051;-62
2022/10/20 04:14:04;;;;;;;112.43;40.80;;;8.30;99.90;;;;;;5097952;28;20100;-62
2022/10/20 04:16:30;;;;;;;108.05;40.70;;;8.30;99.90;;;;;;5097945;28;20382;-62
2022/10/20 04:18:55;;;;;;;108.05;40.67;;;8.10;99.90;;;;;;5097867;28;20028;-62
2022/10/20 04:21:22;;;;;;;109.82;48.80;;;8.00;99.90;;;;;;5098042;28;20036;-62
2022/10/20 04:23:47;;;;;;;96.68;40.60;;;7.90;99.90;;;;;;5097429;28;20389;-62
2022/10/20 04:26:14;;;;;;;108.82;39.03;;;7.90;99.90;;;;;;5097663;28;20119;-62
2022/10/20 04:28:41;;;;;;;104.38;37.00;;;7.90;99.90;;;;;;5097649;28;20443;-62
2022/10/20 04:31:08;;;;;;;97.32;37.70;;;7.90;99.90;;;;;;5097382;28;20035;-63
2022/10/20 04:33:34;;;;;;;129.40;42.28;;;8.00;99.90;;;;;;5097344;28;20491;-62
2022/10/20 04:36:05;;;;;;;144.68;45.88;;;8.00;99.90;;;;;;5097395;28;20039;-62
2022/10/20 04:38:32;;;;;;;155.68;45.58;;;8.00;99.90;;;;;;5097319;28;20032;-62
2022/10/20 04:41:00;;;;;;;229.13;49.65;;;8.10;99.90;;;;;;5097654;28;20110;-63
2022/10/20 04:43:26;;;;;;;163.98;47.55;;;8.00;99.90;;;;;;5097153;28;20381;-62
2022/10/20 04:45:57;;;;;;;256.45;55.65;;;8.10;99.90;;;;;;5096910;28;20139;-63
2022/10/20 04:48:23;;;;;;;189.02;50.60;;;8.10;99.90;;;;;;5097287;28;20020;-63
2022/10/20 04:51:04;;;;;;;198.80;48.13;;;8.00;99.90;;;;;;5097232;28;20045;-63
2022/10/20 04:53:30;;;;;;;200.80;50.33;;;8.00;99.90;;;;;;5097132;28;20081;-62
2022/10/20 04:55:57;;;;;;;237.43;54.60;;;8.10;99.90;;;;;;5097205;28;20428;-62
2022/10/20 04:58:23;;;;;;;187.35;49.15;;;8.30;99.90;;;;;;5096961;28;20032;-62
2022/10/20 05:00:49;;;;;;;435.48;65.93;;;8.20;99.90;;;;;;5097068;28;20031;-62
2022/10/20 05:03:17;;;;;;;223.35;54.28;;;8.20;99.90;;;;;;5096896;28;20080;-63
2022/10/20 05:05:44;;;;;;;246.63;55.30;;;8.10;99.90;;;;;;5096807;28;20024;-63
2022/10/20 05:08:10;;;;;;;253.55;58.35;;;8.20;99.90;;;;;;5096578;28;20028;-62
2022/10/20 05:10:36;;;;;;;244.38;58.72;;;8.40;99.90;;;;;;5096607;28;20042;-62
2022/10/20 05:13:02;;;;;;;247.77;59.40;;;8.20;99.90;;;;;;5091476;28;20574;-62
2022/10/20 05:15:28;;;;;;;242.18;56.55;;;8.20;99.90;;;;;;5075527;28;20462;-62
2022/10/20 05:17:54;;;;;;;268.67;60.03;;;8.30;99.90;;;;;;5091297;28;20538;-63
2022/10/20 05:20:20;;;;;;;305.58;60.03;;;8.10;99.90;;;;;;5096022;28;20485;-62
2022/10/20 05:22:45;;;;;;;213.35;59.95;;;8.00;99.90;;;;;;5095543;28;20591;-62
2022/10/20 05:25:11;;;;;;;175.80;52.55;;;8.00;99.90;;;;;;5096344;28;20024;-62
2022/10/20 05:27:37;;;;;;;179.68;52.42;;;8.30;99.90;;;;;;5096096;28;20024;-62
2022/10/20 05:30:03;;;;;;;209.05;56.55;;;8.40;99.90;;;;;;5092881;28;20048;-62
2022/10/20 05:32:29;;;;;;;196.75;55.28;;;8.40;99.90;;;;;;5096121;28;20032;-63
2022/10/20 05:34:55;;;;;;;167.93;53.45;;;8.20;99.90;;;;;;5093417;28;20355;-62
2022/10/20 05:37:21;;;;;;;176.07;51.92;;;8.20;99.90;;;;;;5096101;28;20028;-62
2022/10/20 05:39:47;;;;;;;175.73;53.60;;;8.20;99.90;;;;;;5096464;28;20028;-62
2022/10/20 05:42:12;;;;;;;187.57;56.92;;;8.40;99.90;;;;;;5095834;28;20055;-62
2022/10/20 05:44:38;;;;;;;135.27;51.25;;;8.30;99.90;;;;;;5095635;28;20043;-62
2022/10/20 05:47:04;;;;;;;154.35;53.15;;;8.40;99.90;;;;;;5095764;28;20032;-62
2022/10/20 05:49:30;;;;;;;152.00;51.88;;;8.50;99.90;;;;;;5095421;28;20071;-62
2022/10/20 05:51:56;;;;;;;139.18;52.22;;;8.50;99.90;;;;;;5095417;28;20634;-62
2022/10/20 05:54:22;;;;;;;151.55;55.67;;;8.60;99.90;;;;;;5088659;28;20036;-62
2022/10/20 05:56:48;;;;;;;145.63;51.72;;;8.80;99.90;;;;;;5090238;28;20024;-62
2022/10/20 05:59:14;;;;;;;146.18;55.00;;;8.90;99.90;;;;;;5092149;28;20481;-62
2022/10/20 06:01:48;;;;;;;150.90;53.63;;;9.00;99.90;;;;;;5094376;28;20032;-62
2022/10/20 06:04:24;;;;;;;154.02;56.00;;;9.00;99.90;;;;;;5082120;28;20153;-62
2022/10/20 06:06:51;;;;;;;159.55;58.65;;;9.00;99.90;;;;;;5074997;28;20032;-62
2022/10/20 06:09:25;;;;;;;227.55;63.97;;;9.10;99.90;;;;;;5066595;28;20051;-62
2022/10/20 06:11:52;;;;;;;150.38;57.42;;;9.10;99.90;;;;;;5054882;28;20025;-62
2022/10/20 06:14:18;;;;;;;154.20;55.50;;;9.10;99.90;;;;;;5074712;28;20505;-62
2022/10/20 06:16:44;;;;;;;183.10;77.25;;;9.30;99.90;;;;;;5074259;28;20032;-62
2022/10/20 06:19:10;;;;;;;157.48;62.42;;;9.50;99.90;;;;;;5074810;28;20113;-62
2022/10/20 06:21:37;;;;;;;164.10;67.30;;;9.40;99.90;;;;;;5075029;28;20059;-63
2022/10/20 06:24:04;;;;;;;143.90;57.67;;;9.30;99.90;;;;;;5074677;28;20055;-62
2022/10/20 06:26:32;;;;;;;126.35;57.22;;;9.50;99.90;;;;;;5075075;28;20025;-62
2022/10/20 06:28:59;;;;;;;123.40;56.35;;;9.60;99.90;;;;;;5071408;28;20020;-62
2022/10/20 06:31:26;;;;;;;112.70;51.30;;;9.70;99.90;;;;;;5075232;28;20032;-62
2022/10/20 06:33:53;;;;;;;130.40;53.40;;;9.80;99.90;;;;;;5074458;28;20567;-62
2022/10/20 06:36:20;;;;;;;132.88;56.17;;;10.10;99.90;;;;;;5074487;28;20028;-63
2022/10/20 06:38:47;;;;;;;124.78;53.75;;;10.80;99.90;;;;;;5074640;28;20496;-63
2022/10/20 06:41:17;;;;;;;133.23;53.75;;;11.50;99.90;;;;;;5074353;28;20028;-63
2022/10/20 06:43:43;;;;;;;117.03;53.08;;;11.90;99.90;;;;;;5074317;28;20028;-63
2022/10/20 06:46:12;;;;;;;132.07;55.17;;;12.20;99.90;;;;;;5074281;28;20052;-63
2022/10/20 06:48:42;;;;;;;136.30;55.65;;;12.90;99.90;;;;;;5069839;28;20020;-63
2022/10/20 06:51:18;;;;;;;144.43;54.58;;;13.40;99.90;;;;;;5053732;28;20539;-63
2022/10/20 06:53:44;;;;;;;133.85;57.03;;;13.80;99.90;;;;;;5054268;28;20032;-62
2022/10/20 06:56:13;;;;;;;157.88;57.22;;;14.10;99.90;;;;;;5054397;28;20560;-63
2022/10/20 06:58:40;;;;;;;207.98;75.57;;;14.50;99.90;;;;;;5054297;28;20029;-62
2022/10/20 07:01:10;;;;;;;161.25;61.45;;;14.70;99.90;;;;;;5054450;28;20660;-63
2022/10/20 07:03:37;;;;;;;144.48;52.35;;;15.00;99.90;;;;;;5061915;28;21982;-63
2022/10/20 07:06:05;;;;;;;102.43;45.05;;;15.20;99.90;;;;;;5074160;28;20052;-63
2022/10/20 07:08:32;;;;;;;110.57;45.00;;;15.50;99.90;;;;;;5087707;28;20489;-63
2022/10/20 07:11:05;;;;;;;122.10;47.42;;;15.90;99.90;;;;;;5093339;28;20024;-63
2022/10/20 07:13:40;;;;;;;114.15;45.47;;;16.30;98.90;;;;;;5094573;28;20073;-63
2022/10/20 07:16:09;;;;;;;149.75;54.17;;;16.50;96.90;;;;;;5094080;28;20035;-63
2022/10/20 07:18:36;;;;;;;162.20;54.35;;;16.70;97.20;;;;;;5094425;28;20485;-63
2022/10/20 07:21:07;;;;;;;143.90;55.95;;;16.70;96.60;;;;;;5093908;28;20032;-63
2022/10/20 07:23:34;;;;;;;132.68;54.05;;;16.70;96.20;;;;;;5093916;28;20066;-62
2022/10/20 07:26:10;;;;;;;142.77;56.95;;;16.70;96.50;;;;;;5094588;28;20028;-62
2022/10/20 07:28:38;;;;;;;123.10;53.90;;;16.90;95.40;;;;;;5076041;28;20401;-62
2022/10/20 07:31:13;;;;;;;151.80;58.08;;;17.30;94.80;;;;;;5094159;28;20024;-62
2022/10/20 07:33:40;;;;;;;140.27;56.78;;;17.50;94.50;;;;;;5093792;28;20028;-62
2022/10/20 07:36:14;;;;;;;140.10;57.58;;;17.30;92.10;;;;;;5093874;28;20103;-63
2022/10/20 07:38:41;;;;;;;133.82;54.95;;;17.10;92.40;;;;;;5096509;28;20039;-62
2022/10/20 07:41:10;;;;;;;139.48;56.70;;;17.60;93.80;;;;;;5099189;28;20465;-62
2022/10/20 07:43:37;;;;;;;120.55;52.70;;;17.90;93.60;;;;;;5098266;28;20032;-62
2022/10/20 07:46:04;;;;;;;142.07;59.72;;;18.10;92.70;;;;;;5090151;28;20021;-62
2022/10/20 07:48:32;;;;;;;139.40;59.60;;;18.60;90.60;;;;;;5087750;28;20036;-62
2022/10/20 07:51:26;;;;;;;147.82;63.25;;;18.60;88.00;;;;;;5060524;28;20037;-62
2022/10/20 07:54:11;;;;;;;159.25;67.25;;;18.80;89.10;;;;;;5075750;28;20074;-62
2022/10/20 07:56:39;;;;;;;164.18;66.93;;;19.40;84.20;;;;;;5083210;28;20037;-62
2022/10/20 07:59:05;;;;;;;150.93;64.22;;;19.10;83.20;;;;;;5086031;28;20385;-62
2022/10/20 08:01:32;;;;;;;161.10;66.82;;;19.10;81.60;;;;;;5098017;28;20047;-62
2022/10/20 08:03:58;;;;;;;141.02;62.10;;;19.20;85.70;;;;;;5097791;28;20123;-62
2022/10/20 08:06:24;;;;;;;141.40;59.15;;;19.20;81.00;;;;;;5097705;28;20055;-62
2022/10/20 08:08:50;;;;;;;133.30;56.63;;;19.00;84.40;;;;;;5097689;28;20024;-62
2022/10/20 08:11:17;;;;;;;125.47;53.88;;;18.60;81.10;;;;;;5097829;28;20453;-62
2022/10/20 08:13:43;;;;;;;113.30;53.63;;;18.90;83.20;;;;;;5097637;28;20035;-62
2022/10/20 08:16:11;;;;;;;113.78;52.63;;;18.60;85.50;;;;;;5097629;28;20470;-62
2022/10/20 08:18:37;;;;;;;116.20;51.03;;;19.00;83.30;;;;;;5097290;28;20038;-62
2022/10/20 08:21:20;;;;;;;111.25;49.47;;;19.00;84.00;;;;;;5096795;28;20024;-62
2022/10/20 08:23:47;;;;;;;115.22;51.33;;;19.10;79.90;;;;;;5097345;28;20024;-62
2022/10/20 08:26:18;;;;;;;106.22;48.13;;;19.10;84.20;;;;;;5097597;28;20027;-62
2022/10/20 08:28:44;;;;;;;106.20;47.42;;;19.80;82.30;;;;;;5097363;28;20095;-62
2022/10/20 08:31:10;;;;;;;89.45;43.47;;;20.10;76.00;;;;;;5095079;28;20635;-62
2022/10/20 08:33:36;;;;;;;95.70;48.00;;;20.50;74.50;;;;;;5093556;28;20306;-61
2022/10/20 08:36:07;;;;;;;97.07;44.40;;;20.10;72.70;;;;;;5096850;28;20473;-62
2022/10/20 08:38:34;;;;;;;88.00;42.05;;;20.50;75.60;;;;;;5096896;28;20028;-62
2022/10/20 08:41:02;;;;;;;91.18;42.33;;;20.70;73.20;;;;;;5097111;28;20036;-62
2022/10/20 08:43:29;;;;;;;94.47;42.40;;;21.10;71.20;;;;;;5096930;28;20059;-62
2022/10/20 08:45:55;;;;;;;64.05;32.58;;;21.10;68.00;;;;;;5096604;28;20502;-62
2022/10/20 08:48:25;;;;;;;68.78;30.15;;;21.60;63.80;;;;;;5096011;28;20056;-62
2022/10/20 08:50:52;;;;;;;67.10;34.13;;;21.50;61.10;;;;;;5096538;28;20028;-62
2022/10/20 08:53:23;;;;;;;65.93;31.88;;;21.40;64.60;;;;;;5096935;28;20020;-62
2022/10/20 08:55:50;;;;;;;60.88;28.67;;;21.10;63.50;;;;;;5096731;28;20032;-62
2022/10/20 08:58:19;;;;;;;41.20;20.50;;;20.90;63.60;;;;;;5096978;28;20115;-62
2022/10/20 09:00:46;;;;;;;47.55;22.88;;;21.20;58.90;;;;;;5096830;28;20024;-62
2022/10/20 09:03:22;;;;;;;52.72;25.83;;;21.40;58.40;;;;;;5096660;28;20314;-62
2022/10/20 09:05:55;;;;;;;24.20;12.43;;;22.00;57.30;;;;;;5096775;28;20092;-62
2022/10/20 09:08:27;;;;;;;37.28;19.15;;;21.40;54.20;;;;;;5096638;28;20028;-62
2022/10/20 09:10:54;;;;;;;31.48;15.52;;;21.70;55.80;;;;;;5096751;28;20032;-62
2022/10/20 09:13:27;;;;;;;36.35;13.45;;;21.90;54.90;;;;;;5096769;28;20076;-62
2022/10/20 09:15:59;;;;;;;33.33;16.33;;;21.90;52.30;;;;;;5097201;28;20465;-62
2022/10/20 09:18:25;;;;;;;31.77;14.05;;;21.80;51.70;;;;;;5097474;28;20035;-62
2022/10/20 09:21:13;;;;;;;30.08;14.82;;;21.70;51.60;;;;;;5097188;28;20032;-62
2022/10/20 09:23:45;;;;;;;43.30;17.65;;;22.40;54.00;;;;;;5096021;28;20185;-62
2022/10/20 09:26:17;;;;;;;35.05;17.25;;;21.50;52.50;;;;;;5097260;28;20048;-63
2022/10/20 09:28:48;;;;;;;40.22;18.00;;;22.00;53.90;;;;;;5096606;28;20073;-62
2022/10/20 09:31:31;;;;;;;;;;;21.70;53.80;;;;;;5097158;28;20016;-62
2022/10/20 09:33:57;;;;;;;41.40;19.38;;;21.90;53.90;;;;;;5096054;28;20229;-62
2022/10/20 09:36:33;;;;;;;33.50;14.93;;;22.20;53.00;;;;;;5096139;28;20499;-62
2022/10/20 09:39:01;;;;;;;46.90;17.52;;;22.90;51.80;;;;;;5087948;28;20024;-61
2022/10/20 09:41:31;;;;;;;33.45;14.98;;;23.20;51.20;;;;;;5076192;28;20028;-64
2022/10/20 09:44:07;;;;;;;33.97;14.48;;;23.30;49.00;;;;;;5085968;28;20054;-65
2022/10/20 09:46:50;;;;;;;27.52;14.85;;;23.30;48.30;;;;;;5087222;28;20083;-65
2022/10/20 09:49:43;;;;;;;39.53;15.52;;;22.00;50.30;;;;;;5082899;28;20437;-65
2022/10/20 09:52:22;;;;;;;34.63;14.73;;;22.00;51.50;;;;;;5075168;28;20040;-64
2022/10/20 09:54:50;;;;;;;32.03;14.98;;;22.80;50.50;;;;;;5081123;28;20024;-64
2022/10/20 09:57:18;;;;;;;24.50;13.10;;;22.70;49.00;;;;;;5087273;28;20069;-64
2022/10/20 09:59:47;;;;;;;25.42;12.63;;;23.00;49.80;;;;;;5075679;28;20063;-64
2022/10/20 10:02:16;;;;;;;26.70;13.85;;;23.30;49.40;;;;;;5078066;28;20037;-64
2022/10/20 10:04:48;;;;;;;36.17;16.55;;;23.80;49.00;;;;;;5091209;28;20091;-64
2022/10/20 10:07:25;;;;;;;34.75;14.43;;;23.80;48.70;;;;;;5093835;28;20107;-64
2022/10/20 10:09:57;;;;;;;35.55;13.95;;;23.20;49.20;;;;;;5095964;28;20081;-64
2022/10/20 10:12:25;;;;;;;28.20;14.50;;;24.20;48.70;;;;;;5085643;28;20366;-64
2022/10/20 10:14:54;;;;;;;27.15;13.60;;;24.40;47.40;;;;;;5090017;28;20055;-64
2022/10/20 10:17:34;;;;;;;34.50;14.73;;;24.20;47.70;;;;;;5095923;28;20082;-64
2022/10/20 10:20:06;;;;;;;40.25;15.35;;;24.80;47.00;;;;;;5094921;28;20434;-64
2022/10/20 10:22:34;;;;;;;33.20;14.82;;;25.20;46.20;;;;;;5077059;28;20039;-64
2022/10/20 10:25:00;;;;;;;25.52;12.77;;;25.20;44.10;;;;;;5095252;28;20031;-64
2022/10/20 10:27:29;;;;;;;33.10;14.55;;;24.90;43.90;;;;;;5095028;28;20020;-64
2022/10/20 10:30:16;;;;;;;23.10;11.65;;;25.20;44.40;;;;;;5093809;28;20103;-64
2022/10/20 10:32:46;;;;;;;23.13;11.85;;;24.30;43.60;;;;;;5077120;28;20485;-64
2022/10/20 10:35:20;;;;;;;19.75;8.77;;;24.10;44.20;;;;;;5094733;28;20032;-64
2022/10/20 10:37:47;;;;;;;21.73;8.82;;;24.50;42.20;;;;;;5092866;28;20374;-64
2022/10/20 10:40:18;;;;;;;20.88;8.80;;;24.80;43.20;;;;;;5095074;28;20028;-64
2022/10/20 10:43:28;;;;;;;16.92;8.10;;;25.20;40.90;;;;;;5095006;28;20050;-64
2022/10/20 10:45:54;;;;;;;18.30;7.90;;;24.30;40.90;;;;;;5076557;28;20039;-64
2022/10/20 10:48:39;;;;;;;21.42;9.50;;;24.40;41.20;;;;;;5094785;28;20020;-64
2022/10/20 10:51:16;;;;;;;30.25;10.90;;;24.10;42.50;;;;;;5094951;28;20024;-64
2022/10/20 10:53:53;;;;;;;26.63;11.60;;;24.40;43.00;;;;;;5076773;28;20028;-64
2022/10/20 10:56:42;;;;;;;29.02;13.40;;;24.80;42.70;;;;;;5094532;28;20095;-64
2022/10/20 10:59:11;;;;;;;19.08;10.27;;;25.50;42.80;;;;;;5094533;28;20036;-64
2022/10/20 11:01:52;;;;;;;25.25;11.70;;;24.80;41.20;;;;;;5094714;28;20418;-64
2022/10/20 11:04:26;;;;;;;18.15;9.07;;;25.20;41.70;;;;;;5094484;28;20043;-64
2022/10/20 11:07:30;;;;;;;23.50;8.52;;;23.90;41.50;;;;;;5094790;28;20024;-64
2022/10/20 11:10:06;;;;;;;22.65;10.18;;;24.70;44.20;;;;;;5092721;28;20051;-64
2022/10/20 11:12:57;;;;;;;18.15;9.75;;;25.10;40.50;;;;;;5093541;28;20024;-64
2022/10/20 11:15:33;;;;;;;;;;;25.50;40.90;;;;;;5094952;28;20046;-64
2022/10/20 11:18:14;;;;;;;25.42;11.88;;;25.70;40.00;;;;;;5094515;28;19967;-64
2022/10/20 11:20:58;;;;;;;17.63;9.38;;;25.10;40.00;;;;;;5094117;28;20027;-65
2022/10/20 11:23:32;;;;;;;20.25;9.27;;;25.10;39.70;;;;;;5094070;28;20470;-64
2022/10/20 11:26:33;;;;;;;22.08;10.73;;;25.10;40.90;;;;;;5094533;28;20468;-64
2022/10/20 11:29:08;;;;;;;21.13;9.40;;;25.00;41.20;;;;;;5094413;28;20465;-64
2022/10/20 11:31:39;;;;;;;30.40;10.57;;;24.80;41.10;;;;;;5094175;28;20028;-64
2022/10/20 11:34:16;;;;;;;19.98;9.60;;;24.60;40.30;;;;;;5094174;28;20103;-64
2022/10/20 11:37:01;;;;;;;17.17;9.13;;;24.40;41.40;;;;;;5094624;28;20062;-64
2022/10/20 11:39:53;;;;;;;24.40;9.65;;;24.90;40.30;;;;;;5093828;28;20111;-64
2022/10/20 11:42:46;;;;;;;27.58;10.38;;;25.00;40.50;;;;;;5093579;28;20444;-64
2022/10/20 11:45:24;;;;;;;25.10;9.23;;;25.10;40.00;;;;;;5093761;28;20020;-64
2022/10/20 11:48:31;;;;;;;21.67;10.25;;;24.60;41.40;;;;;;5094617;28;20016;-64
2022/10/20 11:51:24;;;;;;;21.10;8.90;;;24.40;40.10;;;;;;5083230;28;20032;-64
2022/10/20 11:54:05;;;;;;;22.67;11.10;;;25.10;40.10;;;;;;5091637;28;20055;-64
2022/10/20 11:56:50;;;;;;;29.40;10.93;;;25.10;39.90;;;;;;5094078;28;20032;-64
2022/10/20 11:59:36;;;;;;;20.55;9.90;;;24.90;39.40;;;;;;5094087;28;20497;-64
2022/10/20 12:02:39;;;;;;;28.00;10.63;;;23.80;42.50;;;;;;5094100;28;20035;-64
2022/10/20 12:05:44;;;;;;;28.33;10.75;;;24.30;41.30;;;;;;5094135;28;20424;-64
2022/10/20 12:08:28;;;;;;;21.70;9.77;;;24.60;41.90;;;;;;5093744;28;20024;-64
2022/10/20 12:10:57;;;;;;;19.05;9.77;;;24.10;41.70;;;;;;5075785;28;20033;-64
2022/10/20 12:13:57;;;;;;;20.85;10.98;;;24.60;40.10;;;;;;5093950;28;20030;-64
2022/10/20 12:16:51;;;;;;;18.92;9.90;;;24.00;40.50;;;;;;5093733;28;20040;-65
2022/10/20 12:19:29;;;;;;;27.58;10.43;;;23.90;41.80;;;;;;5093859;28;20028;-64
2022/10/20 12:22:00;;;;;;;21.52;10.48;;;24.00;42.20;;;;;;5093641;28;20428;-64
2022/10/20 12:24:41;;;;;;;27.20;11.52;;;23.20;41.90;;;;;;5096637;28;20063;-63
2022/10/20 12:27:07;;;;;;;27.33;10.85;;;24.00;42.60;;;;;;5097268;28;20465;-64
2022/10/20 12:29:33;;;;;;;29.00;10.90;;;23.80;42.20;;;;;;5097334;28;20020;-63
2022/10/20 12:32:22;;;;;;;25.40;11.65;;;24.00;42.20;;;;;;5097330;28;20020;-63
2022/10/20 12:34:57;;;;;;;23.20;11.43;;;24.00;42.20;;;;;;5097316;28;20054;-63
2022/10/20 12:37:23;;;;;;;24.13;11.77;;;23.00;41.80;;;;;;5096803;28;20115;-63
2022/10/20 12:39:50;;;;;;;30.10;12.57;;;23.50;43.40;;;;;;5097259;28;20056;-63
2022/10/20 12:42:27;;;;;;;20.05;10.50;;;23.80;43.40;;;;;;5097232;28;20489;-63
2022/10/20 12:44:55;;;;;;;26.83;12.48;;;22.80;43.80;;;;;;5096764;28;20031;-63
2022/10/20 12:47:26;;;;;;;23.05;11.38;;;23.50;43.80;;;;;;5096800;28;20055;-63
2022/10/20 12:50:01;;;;;;;19.88;9.90;;;24.00;42.20;;;;;;5096896;28;20774;-64
2022/10/20 12:52:31;;;;;;;28.77;13.07;;;23.80;41.50;;;;;;5096813;28;20032;-64